Roblin, Canada
Current Conditions -  °F | °C
As of 2:00 PM on Tuesday 25 Nov 2014 (Local Time) from CYQV Reporting Station
Overcast Overcast  
Wind Chill: -11°   Ceiling: 11000
Heat Index:   Visibility: 9mi
Dew Point:   Wind: 16mph
Humidity: 79%   Direction: 20°NNE
Pressure: 29.97"   Gusts: NA
Location:  51.23°N, 101.35°W
Report Text: CYQV 252000Z AUTO 02014KT 9SM OVC110 M14/M17 A2997 RMK SLP191
Loading
Personal Weather Stations






























Interactive Weather Map New forecast layout! Learn more

10-Day Weather Forecast

Advertisements
Track Severe Weather on mobile